createdAt,value
2018-02-25T00:01:22.711Z,13.10
2018-02-25T00:03:50.254Z,8.90
2018-02-25T00:06:17.720Z,11.23
2018-02-25T00:08:45.181Z,15.70
2018-02-25T00:11:12.671Z,8.77
2018-02-25T00:13:40.142Z,10.68
2018-02-25T00:16:07.617Z,7.30
2018-02-25T00:18:35.139Z,9.17
2018-02-25T00:21:02.573Z,10.77
2018-02-25T00:23:30.140Z,9.17
2018-02-25T00:25:57.703Z,8.43
2018-02-25T00:28:25.295Z,8.88
2018-02-25T00:30:52.780Z,11.73
2018-02-25T00:33:20.320Z,12.43
2018-02-25T00:35:47.795Z,8.73
2018-02-25T00:38:15.270Z,9.90
2018-02-25T00:40:42.741Z,10.70
2018-02-25T00:43:10.242Z,8.68
2018-02-25T00:45:37.733Z,12.35
2018-02-25T00:48:05.232Z,11.90
2018-02-25T00:50:32.813Z,10.98
2018-02-25T00:53:00.385Z,9.57
2018-02-25T00:55:27.867Z,9.13
2018-02-25T00:57:55.317Z,10.57
2018-02-25T01:00:22.803Z,9.75
2018-02-25T01:02:50.293Z,9.50
2018-02-25T01:05:17.772Z,8.57
2018-02-25T01:07:45.265Z,10.18
2018-02-25T01:10:12.793Z,7.45
2018-02-25T01:12:40.274Z,10.85
2018-02-25T01:15:07.788Z,9.93
2018-02-25T01:17:35.264Z,21.27
2018-02-25T01:20:02.777Z,12.40
2018-02-25T01:22:30.265Z,9.82
2018-02-25T01:24:57.755Z,10.70
2018-02-25T01:27:25.283Z,9.18
2018-02-25T01:29:52.804Z,13.43
2018-02-25T01:32:20.361Z,9.70
2018-02-25T01:34:47.925Z,9.45
2018-02-25T01:37:15.435Z,11.38
2018-02-25T01:39:42.916Z,9.82
2018-02-25T01:42:10.418Z,8.15
2018-02-25T01:44:37.903Z,11.80
2018-02-25T01:47:05.413Z,8.52
2018-02-25T01:49:32.946Z,11.45
2018-02-25T01:52:00.501Z,13.02
2018-02-25T01:54:27.978Z,10.43
2018-02-25T01:56:55.557Z,12.55
2018-02-25T01:59:23.022Z,13.10
2018-02-25T02:01:50.501Z,7.37
2018-02-25T02:04:17.970Z,11.70
2018-02-25T02:06:45.484Z,10.48
2018-02-25T02:09:12.952Z,11.85
2018-02-25T02:11:40.429Z,8.32
2018-02-25T02:14:07.905Z,12.35
2018-02-25T02:16:35.417Z,11.80
2018-02-25T02:19:02.885Z,13.15
2018-02-25T02:21:30.448Z,9.65
2018-02-25T02:23:58.040Z,11.60
2018-02-25T02:26:25.512Z,10.38
2018-02-25T02:28:53.040Z,9.88
2018-02-25T02:31:20.533Z,11.00
2018-02-25T02:33:48.125Z,11.05
2018-02-25T02:36:15.596Z,10.68
2018-02-25T02:38:43.193Z,10.57
2018-02-25T02:41:10.659Z,13.07
2018-02-25T02:43:38.164Z,15.18
2018-02-25T02:46:05.637Z,14.25
2018-02-25T02:48:33.141Z,9.27
2018-02-25T02:51:00.619Z,14.57
2018-02-25T02:53:28.246Z,15.43
2018-02-25T02:55:55.735Z,10.15
2018-02-25T02:58:23.225Z,13.73
2018-02-25T03:00:50.775Z,10.32
2018-02-25T03:03:18.235Z,13.55
2018-02-25T03:05:45.729Z,14.98
2018-02-25T03:08:13.630Z,11.68
2018-02-25T03:10:41.109Z,15.02
2018-02-25T03:13:08.774Z,10.40
2018-02-25T03:15:36.354Z,14.60
2018-02-25T03:18:03.910Z,9.50
2018-02-25T03:20:31.605Z,13.23
2018-02-25T03:22:59.081Z,12.68
2018-02-25T03:25:26.549Z,12.65
2018-02-25T03:27:54.043Z,13.65
2018-02-25T03:30:21.601Z,14.57
2018-02-25T03:32:49.076Z,11.68
2018-02-25T03:35:16.606Z,11.45
2018-02-25T03:37:44.077Z,12.13
2018-02-25T03:40:11.542Z,12.40
2018-02-25T03:42:39.032Z,9.23
2018-02-25T03:45:06.512Z,12.23
2018-02-25T03:47:34.074Z,12.02
2018-02-25T03:50:01.544Z,13.98
2018-02-25T03:52:29.018Z,8.50
2018-02-25T03:54:56.487Z,9.65
2018-02-25T03:57:24.086Z,10.50
2018-02-25T03:59:51.565Z,10.98
2018-02-25T04:02:19.051Z,14.75
2018-02-25T04:04:46.573Z,14.68
2018-02-25T04:07:14.183Z,14.65
2018-02-25T04:09:41.660Z,10.20
2018-02-25T04:12:09.117Z,12.30
2018-02-25T04:14:36.589Z,18.17
2018-02-25T04:17:04.061Z,11.80
2018-02-25T04:19:31.600Z,7.93
2018-02-25T04:21:59.062Z,11.02
2018-02-25T04:24:26.539Z,10.25
2018-02-25T04:26:54.010Z,11.80
2018-02-25T04:29:21.515Z,12.75
2018-02-25T04:31:48.982Z,11.43
2018-02-25T04:34:16.530Z,12.70
2018-02-25T04:36:43.995Z,14.40
2018-02-25T04:39:11.648Z,12.95
2018-02-25T04:41:39.159Z,13.00
2018-02-25T04:44:06.639Z,10.00
2018-02-25T04:46:34.130Z,11.12
2018-02-25T04:49:01.594Z,10.60
2018-02-25T04:51:29.073Z,10.10
2018-02-25T04:53:56.533Z,10.52
2018-02-25T04:56:24.022Z,14.52
2018-02-25T04:58:51.485Z,12.95
2018-02-25T05:01:19.020Z,11.98
2018-02-25T05:03:46.532Z,10.35
2018-02-25T05:06:14.059Z,14.45
2018-02-25T05:08:41.535Z,10.57
2018-02-25T05:11:09.030Z,8.98
2018-02-25T05:13:36.503Z,10.13
2018-02-25T05:16:04.042Z,10.70
2018-02-25T05:18:31.517Z,12.48
2018-02-25T05:20:58.980Z,8.15
2018-02-25T05:23:26.473Z,14.35
2018-02-25T05:25:53.982Z,14.00
2018-02-25T05:28:21.528Z,13.70
2018-02-25T05:30:48.994Z,14.55
2018-02-25T05:33:16.462Z,12.45
2018-02-25T05:35:43.929Z,11.32
2018-02-25T05:38:11.587Z,9.85
2018-02-25T05:40:39.054Z,10.50
2018-02-25T05:43:06.633Z,11.25
2018-02-25T05:45:34.104Z,8.77
2018-02-25T05:48:01.565Z,13.15
2018-02-25T05:50:29.036Z,11.02
2018-02-25T05:52:56.612Z,8.20
2018-02-25T05:55:24.304Z,11.68
2018-02-25T05:57:51.771Z,13.77
2018-02-25T06:00:19.329Z,11.90
2018-02-25T06:02:46.797Z,14.35
2018-02-25T06:05:14.322Z,16.37
2018-02-25T06:07:41.778Z,12.82
2018-02-25T06:10:09.310Z,12.82
2018-02-25T06:12:36.882Z,11.35
2018-02-25T06:15:04.362Z,13.27
2018-02-25T06:17:31.839Z,11.63
2018-02-25T06:19:59.302Z,12.90
2018-02-25T06:22:26.799Z,13.38
2018-02-25T06:24:54.357Z,18.25
2018-02-25T06:27:21.910Z,13.45
2018-02-25T06:29:49.395Z,12.85
2018-02-25T06:32:16.861Z,14.18
2018-02-25T06:34:44.333Z,23.57
2018-02-25T06:37:11.797Z,11.77
2018-02-25T06:39:39.280Z,15.90
2018-02-25T06:42:06.848Z,14.30
2018-02-25T06:44:34.309Z,13.63
2018-02-25T06:47:01.761Z,13.47
2018-02-25T06:49:29.262Z,14.77
2018-02-25T06:51:56.729Z,14.17
2018-02-25T06:54:24.266Z,16.37
2018-02-25T06:56:51.733Z,11.93
2018-02-25T06:59:19.190Z,12.70
2018-02-25T07:01:46.710Z,10.60
2018-02-25T07:04:14.289Z,16.33
2018-02-25T07:06:41.778Z,16.00
2018-02-25T07:09:09.332Z,12.43
2018-02-25T07:11:36.806Z,11.23
2018-02-25T07:14:04.258Z,18.13
2018-02-25T07:16:31.762Z,17.70
2018-02-25T07:18:59.313Z,15.73
2018-02-25T07:21:26.797Z,13.00
2018-02-25T07:23:54.296Z,13.93
2018-02-25T07:26:22.606Z,14.63
2018-02-25T07:28:50.100Z,17.80
2018-02-25T07:31:17.577Z,18.33
2018-02-25T07:33:45.165Z,13.23
2018-02-25T07:36:12.767Z,14.63
2018-02-25T07:38:40.256Z,13.93
2018-02-25T07:41:07.725Z,13.77
2018-02-25T07:43:35.276Z,13.60
2018-02-25T07:46:02.824Z,11.17
2018-02-25T07:48:30.305Z,11.80
2018-02-25T07:50:57.915Z,13.90
2018-02-25T07:53:25.384Z,11.23
2018-02-25T07:55:52.927Z,14.03
2018-02-25T07:58:20.600Z,14.57
2018-02-25T08:00:48.102Z,13.83
2018-02-25T08:03:15.574Z,10.40
2018-02-25T08:05:43.032Z,12.10
2018-02-25T08:08:10.554Z,11.47
2018-02-25T08:10:38.079Z,12.30
2018-02-25T08:13:05.615Z,10.03
2018-02-25T08:15:33.245Z,12.20
2018-02-25T08:18:00.778Z,9.60
2018-02-25T08:20:28.241Z,14.10
2018-02-25T08:22:55.701Z,8.10
2018-02-25T08:25:23.515Z,13.70
2018-02-25T08:27:51.004Z,11.03
2018-02-25T08:30:18.528Z,10.70
2018-02-25T08:32:45.992Z,11.20
2018-02-25T08:35:13.471Z,12.50
2018-02-25T08:37:40.940Z,11.47
2018-02-25T08:40:08.447Z,10.33
2018-02-25T08:42:35.899Z,10.83
2018-02-25T08:45:03.361Z,10.33
2018-02-25T08:47:30.848Z,11.87
2018-02-25T08:49:58.317Z,10.20
2018-02-25T08:52:25.870Z,10.07
2018-02-25T08:54:53.421Z,10.17
2018-02-25T08:57:20.960Z,13.23
2018-02-25T08:59:48.412Z,9.83
2018-02-25T09:02:15.881Z,10.43
2018-02-25T09:04:43.438Z,13.73
2018-02-25T09:07:10.908Z,8.13
2018-02-25T09:09:38.373Z,14.17
2018-02-25T09:12:05.847Z,8.97
2018-02-25T09:14:33.298Z,7.87
2018-02-25T09:17:00.779Z,8.97
2018-02-25T09:19:28.243Z,7.77
2018-02-25T09:21:55.730Z,17.33
2018-02-25T09:24:23.192Z,7.50
2018-02-25T09:26:50.885Z,9.90
2018-02-25T09:29:18.333Z,7.70
2018-02-25T09:31:45.794Z,7.70
2018-02-25T09:34:13.290Z,10.10
2018-02-25T09:36:40.814Z,8.10
2018-02-25T09:39:08.308Z,10.47
2018-02-25T09:41:35.770Z,11.17
2018-02-25T09:44:03.236Z,9.90
2018-02-25T09:46:30.708Z,9.00
2018-02-25T09:48:58.331Z,10.07
2018-02-25T09:51:25.800Z,7.63
2018-02-25T09:53:53.280Z,6.90
2018-02-25T09:56:20.752Z,6.43
2018-02-25T09:58:48.325Z,6.13
2018-02-25T10:01:15.809Z,10.90
2018-02-25T10:03:43.357Z,7.93
2018-02-25T10:06:10.823Z,6.93
2018-02-25T10:08:38.298Z,6.23
2018-02-25T10:11:05.779Z,7.30
2018-02-25T10:13:33.244Z,5.93
2018-02-25T10:16:00.719Z,5.87
2018-02-25T10:18:28.197Z,7.40
2018-02-25T10:20:55.671Z,6.00
2018-02-25T10:23:23.130Z,6.70
2018-02-25T10:25:50.624Z,7.80
2018-02-25T10:28:18.394Z,7.13
2018-02-25T10:30:45.873Z,4.77
2018-02-25T10:33:13.342Z,6.37
2018-02-25T10:35:40.882Z,4.47
2018-02-25T10:38:08.419Z,7.00
2018-02-25T10:40:35.883Z,5.57
2018-02-25T10:43:03.355Z,7.07
2018-02-25T10:45:30.878Z,6.20
2018-02-25T10:47:58.348Z,5.70
2018-02-25T10:50:25.820Z,5.93
2018-02-25T10:52:53.286Z,5.27
2018-02-25T10:55:20.759Z,7.53
2018-02-25T10:57:48.225Z,6.50
2018-02-25T11:00:21.201Z,6.97
2018-02-25T11:02:48.678Z,6.53
2018-02-25T11:05:16.130Z,5.37
2018-02-25T11:07:43.634Z,5.93
2018-02-25T11:10:11.109Z,6.77
2018-02-25T11:12:38.598Z,4.27
2018-02-25T11:15:06.064Z,6.43
2018-02-25T11:17:33.623Z,6.80
2018-02-25T11:20:01.078Z,5.50
2018-02-25T11:22:28.537Z,6.03
2018-02-25T11:24:55.999Z,7.53
2018-02-25T11:27:23.476Z,6.97
2018-02-25T11:29:51.186Z,6.97
2018-02-25T11:32:18.664Z,6.77
2018-02-25T11:34:46.132Z,7.17
2018-02-25T11:37:13.697Z,4.33
2018-02-25T11:39:41.152Z,7.03
2018-02-25T11:42:08.634Z,6.50
2018-02-25T11:44:36.125Z,6.80
2018-02-25T11:47:03.603Z,11.30
2018-02-25T11:49:31.167Z,4.83
2018-02-25T11:51:58.637Z,6.47
2018-02-25T11:54:26.085Z,7.67
2018-02-25T11:56:53.595Z,5.80
2018-02-25T11:59:21.138Z,6.57
2018-02-25T12:01:49.459Z,6.17
2018-02-25T12:04:16.997Z,5.20
2018-02-25T12:06:44.490Z,7.60
2018-02-25T12:09:11.944Z,5.17
2018-02-25T12:11:39.616Z,4.43
2018-02-25T12:14:07.089Z,7.63
2018-02-25T12:16:34.568Z,7.40
2018-02-25T12:19:02.056Z,6.53
2018-02-25T12:21:29.593Z,7.43
2018-02-25T12:23:57.074Z,5.90
2018-02-25T12:26:24.521Z,5.60
2018-02-25T12:28:51.993Z,7.83
2018-02-25T12:31:19.490Z,9.63
2018-02-25T12:33:46.972Z,6.53
2018-02-25T12:36:15.297Z,9.43
2018-02-25T12:38:43.025Z,6.83
2018-02-25T12:41:10.489Z,8.33
2018-02-25T12:43:37.966Z,4.87
2018-02-25T12:46:05.483Z,6.73
2018-02-25T12:48:33.397Z,6.20
2018-02-25T12:51:00.891Z,6.43
2018-02-25T12:53:28.345Z,6.83
2018-02-25T12:55:56.029Z,9.07
2018-02-25T12:58:23.755Z,7.57
2018-02-25T13:00:51.245Z,7.93
2018-02-25T13:03:18.745Z,6.37
2018-02-25T13:05:46.226Z,9.73
2018-02-25T13:08:13.682Z,9.83
2018-02-25T13:10:41.154Z,6.17
2018-02-25T13:13:08.630Z,6.80
2018-02-25T13:15:36.207Z,6.47
2018-02-25T13:18:03.708Z,10.90
2018-02-25T13:20:31.173Z,7.47
2018-02-25T13:22:58.717Z,8.20
2018-02-25T13:25:28.974Z,9.73
2018-02-25T13:27:56.459Z,8.23
2018-02-25T13:30:23.917Z,7.60
2018-02-25T13:32:51.468Z,11.13
2018-02-25T13:35:18.957Z,10.23
2018-02-25T13:37:46.430Z,12.13
2018-02-25T13:40:13.898Z,10.07
2018-02-25T13:42:41.386Z,10.03
2018-02-25T13:45:08.837Z,8.17
2018-02-25T13:47:36.317Z,8.13
2018-02-25T13:50:03.790Z,7.83
2018-02-25T13:52:31.237Z,9.17
2018-02-25T13:54:58.700Z,11.73
2018-02-25T13:57:26.216Z,10.17
2018-02-25T13:59:53.685Z,7.30
2018-02-25T14:02:21.240Z,9.93
2018-02-25T14:04:48.717Z,9.00
2018-02-25T14:07:16.170Z,8.63
2018-02-25T14:09:43.732Z,8.27
2018-02-25T14:12:11.193Z,11.50
2018-02-25T14:14:38.682Z,8.47
2018-02-25T14:17:06.124Z,8.30
2018-02-25T14:19:33.638Z,7.70
2018-02-25T14:22:01.101Z,10.27
2018-02-25T14:24:28.608Z,8.37
2018-02-25T14:26:56.048Z,8.87
2018-02-25T14:29:23.622Z,7.47
2018-02-25T14:31:51.129Z,7.20
2018-02-25T14:34:18.594Z,8.93
2018-02-25T14:36:46.124Z,7.10
2018-02-25T14:39:13.576Z,8.50
2018-02-25T14:41:41.043Z,7.70
2018-02-25T14:44:08.530Z,8.10
2018-02-25T14:46:36.102Z,8.73
2018-02-25T14:49:03.552Z,8.13
2018-02-25T14:51:31.046Z,8.37
2018-02-25T14:53:58.618Z,7.80
2018-02-25T14:56:26.184Z,6.77
2018-02-25T14:58:53.662Z,7.77
2018-02-25T15:01:21.133Z,8.77
2018-02-25T15:03:48.599Z,6.60
2018-02-25T15:06:16.089Z,6.60
2018-02-25T15:08:43.566Z,6.00
2018-02-25T15:11:11.040Z,6.90
2018-02-25T15:13:38.517Z,8.67
2018-02-25T15:16:05.978Z,5.30
2018-02-25T15:18:33.476Z,8.87
2018-02-25T15:21:00.929Z,8.10
2018-02-25T15:23:28.472Z,7.90
2018-02-25T15:25:55.937Z,11.07
2018-02-25T15:28:23.490Z,8.20
2018-02-25T15:30:50.954Z,7.77
2018-02-25T15:33:18.463Z,9.10
2018-02-25T15:35:45.930Z,7.57
2018-02-25T15:38:13.445Z,6.33
2018-02-25T15:40:41.056Z,11.73
2018-02-25T15:43:08.471Z,12.60
2018-02-25T15:45:35.949Z,10.37
2018-02-25T15:48:03.506Z,8.83
2018-02-25T15:50:30.983Z,8.87
2018-02-25T15:52:58.448Z,7.87
2018-02-25T15:55:25.917Z,6.30
2018-02-25T15:57:53.484Z,6.57
2018-02-25T16:00:21.110Z,10.10
2018-02-25T16:02:49.362Z,6.90
2018-02-25T16:05:16.861Z,6.27
2018-02-25T16:07:44.352Z,6.90
2018-02-25T16:10:11.945Z,7.07
2018-02-25T16:12:39.419Z,8.93
2018-02-25T16:15:06.891Z,11.33
2018-02-25T16:17:34.557Z,9.33
2018-02-25T16:20:02.022Z,9.90
2018-02-25T16:22:29.498Z,7.73
2018-02-25T16:24:56.952Z,7.60
2018-02-25T16:27:24.424Z,6.37
2018-02-25T16:29:51.916Z,12.33
2018-02-25T16:32:19.480Z,8.73
2018-02-25T16:34:47.049Z,8.57
2018-02-25T16:37:14.527Z,8.30
2018-02-25T16:39:41.991Z,7.50
2018-02-25T16:42:09.461Z,9.03
2018-02-25T16:44:36.977Z,9.20
2018-02-25T16:47:04.526Z,8.63
2018-02-25T16:49:32.081Z,11.50
2018-02-25T16:51:59.536Z,8.47
2018-02-25T16:54:27.037Z,7.47
2018-02-25T16:56:54.555Z,9.13
2018-02-25T16:59:22.075Z,6.20
2018-02-25T17:01:49.549Z,9.77
2018-02-25T17:04:17.037Z,6.13
2018-02-25T17:06:44.502Z,7.73
2018-02-25T17:09:11.970Z,8.67
2018-02-25T17:11:39.424Z,6.13
2018-02-25T17:14:06.997Z,8.07
2018-02-25T17:16:34.488Z,10.90
2018-02-25T17:19:01.969Z,10.77
2018-02-25T17:21:29.586Z,12.27
2018-02-25T17:23:57.087Z,11.20
2018-02-25T17:26:24.668Z,9.03
2018-02-25T17:28:52.135Z,8.57
2018-02-25T17:31:20.466Z,8.57
2018-02-25T17:33:48.041Z,12.23
2018-02-25T17:36:15.593Z,12.17
2018-02-25T17:38:43.062Z,10.07
2018-02-25T17:41:10.533Z,8.03
2018-02-25T17:43:38.081Z,15.00
2018-02-25T17:46:05.550Z,8.27
2018-02-25T17:48:33.003Z,8.13
2018-02-25T17:51:00.475Z,11.57
2018-02-25T17:53:27.935Z,10.03
2018-02-25T17:55:55.551Z,10.37
2018-02-25T17:58:22.968Z,13.23
2018-02-25T18:00:50.491Z,11.73
2018-02-25T18:03:18.102Z,13.20
2018-02-25T18:05:45.566Z,12.70
2018-02-25T18:08:13.043Z,17.77
2018-02-25T18:10:40.519Z,19.23
2018-02-25T18:13:08.014Z,20.77
2018-02-25T18:15:35.471Z,14.07
2018-02-25T18:18:02.990Z,19.00
2018-02-25T18:20:30.497Z,10.70
2018-02-25T18:22:58.037Z,12.27
2018-02-25T18:25:25.611Z,11.83
2018-02-25T18:27:53.163Z,15.17
2018-02-25T18:30:20.645Z,9.63
2018-02-25T18:32:48.116Z,9.97
2018-02-25T18:35:15.638Z,11.70
2018-02-25T18:37:43.066Z,9.73
2018-02-25T18:40:10.538Z,7.50
2018-02-25T18:42:37.994Z,10.77
2018-02-25T18:45:05.475Z,8.07
2018-02-25T18:47:32.949Z,11.07
2018-02-25T18:50:00.508Z,8.77
2018-02-25T18:52:27.972Z,11.00
2018-02-25T18:54:55.471Z,9.67
2018-02-25T18:57:23.028Z,9.63
2018-02-25T18:59:50.607Z,11.83
2018-02-25T19:02:18.189Z,10.80
2018-02-25T19:04:45.749Z,10.80
2018-02-25T19:07:13.218Z,8.73
2018-02-25T19:09:40.737Z,8.07
2018-02-25T19:12:08.213Z,13.30
2018-02-25T19:14:35.682Z,14.33
2018-02-25T19:17:03.256Z,7.73
2018-02-25T19:19:30.773Z,8.83
2018-02-25T19:21:58.347Z,9.20
2018-02-25T19:24:25.828Z,9.27
2018-02-25T19:26:53.340Z,7.70
2018-02-25T19:29:20.809Z,8.77
2018-02-25T19:31:48.375Z,10.17
2018-02-25T19:34:15.858Z,11.57
2018-02-25T19:36:49.133Z,10.70
2018-02-25T19:39:22.206Z,10.10
2018-02-25T19:41:54.101Z,10.60
2018-02-25T19:44:21.611Z,41.53
2018-02-25T19:46:49.086Z,133.53
2018-02-25T19:49:16.572Z,219.60
2018-02-25T19:51:44.065Z,206.50
2018-02-25T19:54:11.559Z,27.80
2018-02-25T19:56:39.147Z,10.63
2018-02-25T19:59:06.786Z,67.57
2018-02-25T20:01:34.361Z,79.33
2018-02-25T20:04:01.845Z,20.03
2018-02-25T20:06:29.415Z,51.87
2018-02-25T20:08:56.901Z,19.93
2018-02-25T20:11:24.404Z,15.60
2018-02-25T20:13:51.911Z,14.27
2018-02-25T20:16:19.585Z,16.93
2018-02-25T20:18:47.112Z,16.53
2018-02-25T20:21:14.600Z,17.20
2018-02-25T20:23:42.052Z,15.33
2018-02-25T20:26:09.571Z,14.23
2018-02-25T20:28:37.047Z,11.63
2018-02-25T20:31:04.629Z,13.47
2018-02-25T20:33:32.199Z,14.00
2018-02-25T20:35:59.691Z,16.20
2018-02-25T20:38:27.162Z,19.50
2018-02-25T20:40:54.633Z,14.13
2018-02-25T20:43:22.177Z,11.03
2018-02-25T20:45:49.665Z,13.40
2018-02-25T20:48:17.157Z,14.07
2018-02-25T20:50:44.627Z,15.23
2018-02-25T20:53:12.174Z,15.80
2018-02-25T20:55:39.643Z,12.20
2018-02-25T20:58:07.113Z,16.00
2018-02-25T21:00:34.685Z,14.65
2018-02-25T21:03:02.249Z,17.43
2018-02-25T21:05:29.718Z,15.87
2018-02-25T21:07:57.592Z,10.57
2018-02-25T21:10:25.081Z,17.83
2018-02-25T21:12:52.699Z,20.60
2018-02-25T21:15:20.185Z,15.63
2018-02-25T21:17:47.672Z,10.47
2018-02-25T21:20:15.137Z,14.77
2018-02-25T21:22:42.614Z,13.15
2018-02-25T21:25:10.106Z,13.57
2018-02-25T21:27:37.560Z,15.50
2018-02-25T21:30:05.051Z,14.50
2018-02-25T21:32:32.529Z,12.95
2018-02-25T21:35:00.083Z,14.82
2018-02-25T21:37:27.546Z,19.73
2018-02-25T21:39:55.085Z,18.65
2018-02-25T21:42:22.564Z,17.33
2018-02-25T21:44:50.069Z,16.27
2018-02-25T21:47:17.646Z,17.37
2018-02-25T21:49:45.215Z,14.60
2018-02-25T21:52:12.782Z,20.52
2018-02-25T21:54:46.049Z,17.87
2018-02-25T21:57:19.208Z,17.55
2018-02-25T21:59:52.390Z,14.77
2018-02-25T22:02:25.596Z,15.77
2018-02-25T22:04:53.127Z,15.10
2018-02-25T22:07:20.632Z,15.77
2018-02-25T22:09:48.128Z,12.65
2018-02-25T22:12:15.698Z,14.60
2018-02-25T22:14:43.163Z,15.18
2018-02-25T22:17:10.761Z,12.15
2018-02-25T22:19:38.321Z,15.80
2018-02-25T22:22:05.796Z,15.48
2018-02-25T22:24:33.358Z,14.57
2018-02-25T22:27:00.843Z,15.50
2018-02-25T22:29:28.445Z,15.90
2018-02-25T22:31:55.950Z,14.55
2018-02-25T22:34:23.438Z,15.10
2018-02-25T22:36:50.932Z,14.57
2018-02-25T22:39:18.475Z,13.32
2018-02-25T22:41:45.943Z,20.37
2018-02-25T22:44:13.443Z,16.98
2018-02-25T22:46:40.921Z,17.27
2018-02-25T22:49:08.474Z,20.85
2018-02-25T22:51:35.963Z,21.98
2018-02-25T22:54:03.575Z,25.20
2018-02-25T22:56:31.039Z,20.85
2018-02-25T22:58:58.585Z,20.23
2018-02-25T23:01:26.169Z,23.67
2018-02-25T23:03:53.749Z,14.15
2018-02-25T23:06:21.238Z,22.33
2018-02-25T23:08:48.962Z,13.73
2018-02-25T23:11:16.433Z,15.70
2018-02-25T23:13:43.969Z,13.10
2018-02-25T23:16:11.437Z,33.92
2018-02-25T23:18:38.926Z,14.27
2018-02-25T23:21:06.404Z,17.87
2018-02-25T23:23:33.877Z,16.70
2018-02-25T23:26:01.370Z,23.08
2018-02-25T23:28:28.845Z,18.00
2018-02-25T23:30:56.355Z,18.48
2018-02-25T23:33:23.851Z,11.02
2018-02-25T23:35:51.341Z,16.47
2018-02-25T23:38:18.900Z,11.38
2018-02-25T23:40:46.394Z,11.82
2018-02-25T23:43:13.864Z,16.00
2018-02-25T23:45:41.340Z,14.52
2018-02-25T23:48:08.897Z,20.65
2018-02-25T23:50:36.371Z,18.25
2018-02-25T23:53:03.858Z,15.45
2018-02-25T23:55:31.407Z,20.88
2018-02-25T23:57:58.888Z,23.10
